Time;durP1;ratioP1;P1;durP2;ratioP2;P2;SDS_P1;SDS_P2;PMS_P1;PMS_P2;Temp;Humidity;BMP_temperature;BMP_pressure;BME280_temperature;BME280_humidity;BME280_pressure;Samples;Min_cycle;Max_cycle;Signal;HPM_P1;HPM_P2
2022/08/07 00:00:14;0.00;0.00;0.62;0.00;0.00;0.62;3.87;3.50;;;27.60;25.50;;;;;;2214335;62;20385;-67
2022/08/07 00:02:59;0.00;0.00;0.62;0.00;0.00;0.62;3.90;3.50;;;27.60;25.50;;;;;;2214655;62;20657;-67
2022/08/07 00:05:44;0.00;0.00;0.62;0.00;0.00;0.62;4.70;3.40;;;27.60;25.60;;;;;;2214903;62;20414;-68
2022/08/07 00:08:29;0.00;0.00;0.62;0.00;0.00;0.62;4.97;3.50;;;27.60;25.60;;;;;;2214851;62;20425;-67
2022/08/07 00:11:14;0.00;0.00;0.62;0.00;0.00;0.62;4.67;4.03;;;27.50;25.50;;;;;;2214654;62;20415;-67
2022/08/07 00:13:58;0.00;0.00;0.62;0.00;0.00;0.62;5.57;3.60;;;27.50;25.50;;;;;;2214101;62;20737;-67
2022/08/07 00:16:44;0.00;0.00;0.62;0.00;0.00;0.62;4.53;4.10;;;27.50;25.50;;;;;;2214585;62;20384;-68
2022/08/07 00:19:30;0.00;0.00;0.62;0.00;0.00;0.62;4.57;3.37;;;27.50;25.50;;;;;;2214461;62;20692;-67
2022/08/07 00:22:15;0.00;0.00;0.62;0.00;0.00;0.62;4.30;3.90;;;27.50;25.50;;;;;;2214157;62;20442;-68
2022/08/07 00:25:00;0.00;0.00;0.62;0.00;0.00;0.62;4.63;3.93;;;27.50;25.50;;;;;;2214595;62;20400;-67
2022/08/07 00:27:45;0.00;0.00;0.62;0.00;0.00;0.62;3.97;3.33;;;27.50;25.50;;;;;;2214344;62;20469;-67
2022/08/07 00:30:29;0.00;0.00;0.62;0.00;0.00;0.62;4.20;3.40;;;27.50;25.50;;;;;;2214048;62;20372;-67
2022/08/07 00:33:16;0.00;0.00;0.62;0.00;0.00;0.62;3.70;3.30;;;27.50;25.60;;;;;;2214291;62;20433;-66
2022/08/07 00:36:02;0.00;0.00;0.62;0.00;0.00;0.62;5.30;4.50;;;27.50;25.60;;;;;;2213790;62;20640;-68
2022/08/07 00:38:47;0.00;0.00;0.62;0.00;0.00;0.62;3.80;3.20;;;27.50;25.60;;;;;;2214756;62;20765;-67
2022/08/07 00:41:33;0.00;0.00;0.62;0.00;0.00;0.62;4.30;3.53;;;27.50;25.60;;;;;;2214768;62;20391;-67
2022/08/07 00:44:18;0.00;0.00;0.62;0.00;0.00;0.62;3.73;3.30;;;27.50;25.60;;;;;;2214304;62;20372;-68
2022/08/07 00:47:05;0.00;0.00;0.62;0.00;0.00;0.62;3.77;3.40;;;27.50;25.50;;;;;;2216711;62;20584;-67
2022/08/07 00:49:52;0.00;0.00;0.62;0.00;0.00;0.62;4.17;3.77;;;27.50;25.50;;;;;;2214634;62;20593;-67
2022/08/07 00:52:37;0.00;0.00;0.62;0.00;0.00;0.62;4.23;3.80;;;27.40;25.50;;;;;;2214222;62;20376;-67
2022/08/07 00:55:22;0.00;0.00;0.62;0.00;0.00;0.62;5.00;3.90;;;27.40;25.50;;;;;;2214502;62;20368;-68
2022/08/07 00:58:07;0.00;0.00;0.62;0.00;0.00;0.62;3.50;3.20;;;27.40;25.50;;;;;;2213951;62;20450;-67
2022/08/07 01:00:52;0.00;0.00;0.62;0.00;0.00;0.62;4.40;3.23;;;27.40;25.50;;;;;;2214684;62;20414;-66
2022/08/07 01:03:37;0.00;0.00;0.62;0.00;0.00;0.62;5.40;3.80;;;27.40;25.60;;;;;;2214293;62;20620;-67
2022/08/07 01:06:23;0.00;0.00;0.62;0.00;0.00;0.62;4.33;3.70;;;27.40;25.60;;;;;;2213915;62;20357;-66
2022/08/07 01:09:08;0.00;0.00;0.62;0.00;0.00;0.62;3.87;3.47;;;27.40;25.60;;;;;;2214329;62;20434;-67
2022/08/07 01:11:54;0.00;0.00;0.62;0.00;0.00;0.62;4.20;3.80;;;27.40;25.60;;;;;;2214300;62;20693;-67
2022/08/07 01:14:38;0.00;0.00;0.62;0.00;0.00;0.62;6.10;4.00;;;27.40;25.60;;;;;;2213739;62;20406;-67
2022/08/07 01:17:24;0.00;0.00;0.62;0.00;0.00;0.62;5.30;4.80;;;27.40;25.60;;;;;;2214234;62;20784;-67
2022/08/07 01:20:12;0.00;0.00;0.62;0.00;0.00;0.62;4.50;4.10;;;27.40;25.70;;;;;;2213657;62;20743;-66
2022/08/07 01:22:59;0.00;0.00;0.62;0.00;0.00;0.62;5.40;4.13;;;27.40;25.60;;;;;;2214198;62;20453;-66
2022/08/07 01:25:45;0.00;0.00;0.62;0.00;0.00;0.62;5.30;4.10;;;27.40;25.70;;;;;;2214033;62;20484;-66
2022/08/07 01:28:31;0.00;0.00;0.62;0.00;0.00;0.62;5.00;4.50;;;27.30;25.70;;;;;;2213697;62;20757;-67
2022/08/07 01:31:19;0.00;0.00;0.62;0.00;0.00;0.62;4.73;4.27;;;27.30;25.70;;;;;;2213879;62;20436;-67
2022/08/07 01:34:06;0.00;0.00;0.62;0.00;0.00;0.62;5.27;3.90;;;27.30;26.20;;;;;;2214220;62;20591;-66
2022/08/07 01:36:56;0.00;0.00;0.62;0.00;0.00;0.62;4.00;3.47;;;27.30;25.70;;;;;;2213592;62;20371;-67
2022/08/07 01:39:45;0.00;0.00;0.62;0.00;0.00;0.62;4.10;3.70;;;27.30;25.80;;;;;;2213884;62;20600;-68
2022/08/07 01:42:36;0.00;0.00;0.62;0.00;0.00;0.62;4.93;3.97;;;27.30;25.80;;;;;;2213621;62;20406;-65
2022/08/07 01:45:22;0.00;0.00;0.62;0.00;0.00;0.62;4.67;3.70;;;27.20;25.80;;;;;;2214178;62;20654;-66
2022/08/07 01:48:10;0.00;0.00;0.62;0.00;0.00;0.62;4.77;3.60;;;27.30;25.90;;;;;;2214015;62;20416;-65
2022/08/07 01:50:59;0.00;0.00;0.62;0.00;0.00;0.62;6.80;3.97;;;27.20;25.80;;;;;;2213499;62;20371;-68
2022/08/07 01:53:49;0.00;0.00;0.62;0.00;0.00;0.62;4.10;3.70;;;27.20;25.80;;;;;;2213938;62;20369;-67
2022/08/07 01:56:46;0.00;0.00;0.62;0.00;0.00;0.62;5.33;4.47;;;27.20;25.80;;;;;;2214489;62;20754;-67
2022/08/07 01:59:39;0.00;0.00;0.62;0.00;0.00;0.62;4.77;3.90;;;27.20;25.80;;;;;;2214069;62;20376;-68
2022/08/07 02:02:30;0.00;0.00;0.62;0.00;0.00;0.62;5.10;3.70;;;27.10;25.70;;;;;;2213900;62;20796;-68
2022/08/07 02:05:24;0.00;0.00;0.62;0.00;0.00;0.62;5.03;3.77;;;27.10;25.70;;;;;;2213484;62;20391;-65
2022/08/07 02:08:14;0.00;0.00;0.62;0.00;0.00;0.62;4.90;3.53;;;27.10;25.70;;;;;;2216457;62;20384;-67
2022/08/07 02:11:01;0.00;0.00;0.62;0.00;0.00;0.62;4.00;3.43;;;27.00;25.70;;;;;;2214202;62;20812;-67
2022/08/07 02:13:51;0.00;0.00;0.62;0.00;0.00;0.62;4.60;3.20;;;27.00;25.70;;;;;;2213482;62;20434;-67
2022/08/07 02:16:38;0.00;0.00;0.62;0.00;0.00;0.62;3.60;3.23;;;26.90;25.80;;;;;;2213787;62;20588;-67
2022/08/07 02:19:23;0.00;0.00;0.62;0.00;0.00;0.62;3.47;3.17;;;26.90;25.90;;;;;;2213873;62;20490;-67
2022/08/07 02:22:11;0.00;0.00;0.62;0.00;0.00;0.62;3.40;2.70;;;26.90;25.90;;;;;;2214046;62;20389;-68
2022/08/07 02:24:57;0.00;0.00;0.62;0.00;0.00;0.62;5.73;3.67;;;26.80;26.00;;;;;;2213995;62;20375;-67
2022/08/07 02:27:44;0.00;0.00;0.62;0.00;0.00;0.62;3.70;3.30;;;26.80;26.00;;;;;;2213523;62;20396;-67
2022/08/07 02:30:32;0.00;0.00;0.62;0.00;0.00;0.62;3.50;3.20;;;26.90;26.10;;;;;;2213818;62;20763;-66
2022/08/07 02:33:18;0.00;0.00;0.62;0.00;0.00;0.62;4.90;3.40;;;26.80;26.10;;;;;;2214041;62;20471;-66
2022/08/07 02:36:05;0.00;0.00;0.62;0.00;0.00;0.62;4.50;3.63;;;26.80;26.00;;;;;;2213311;62;20377;-66
2022/08/07 02:38:53;0.00;0.00;0.62;0.00;0.00;0.62;5.23;3.80;;;26.80;26.00;;;;;;2214475;62;20800;-67
2022/08/07 02:41:38;0.00;0.00;0.62;0.00;0.00;0.62;4.80;4.03;;;26.80;26.00;;;;;;2213965;62;20420;-66
2022/08/07 02:44:28;0.00;0.00;0.62;0.00;0.00;0.62;3.50;3.20;;;26.80;26.00;;;;;;2217417;62;20581;-66
2022/08/07 02:47:16;0.00;0.00;0.62;0.00;0.00;0.62;4.73;4.00;;;26.80;26.00;;;;;;2214930;62;20388;-66
2022/08/07 02:50:01;0.00;0.00;0.62;0.00;0.00;0.62;4.30;3.47;;;26.80;26.10;;;;;;2214350;62;20380;-66
2022/08/07 02:52:57;0.00;0.00;0.62;0.00;0.00;0.62;4.87;3.50;;;26.80;26.10;;;;;;2214797;62;20352;-67
2022/08/07 02:55:46;0.00;0.00;0.62;0.00;0.00;0.62;3.63;2.90;;;26.80;26.20;;;;;;2214545;62;20451;-67
2022/08/07 02:58:33;0.00;0.00;0.62;0.00;0.00;0.62;3.97;3.10;;;26.80;26.20;;;;;;2214231;62;20416;-67
2022/08/07 03:01:23;0.00;0.00;0.62;0.00;0.00;0.62;3.70;2.87;;;26.80;26.20;;;;;;2216886;62;20388;-65
2022/08/07 03:04:13;0.00;0.00;0.62;0.00;0.00;0.62;3.53;3.00;;;26.80;26.30;;;;;;2214040;62;20408;-67
2022/08/07 03:07:00;0.00;0.00;0.62;0.00;0.00;0.62;3.40;3.10;;;26.80;26.30;;;;;;2214393;62;20481;-67
2022/08/07 03:09:45;0.00;0.00;0.62;0.00;0.00;0.62;4.10;3.17;;;26.80;26.30;;;;;;2214899;62;20372;-67
2022/08/07 03:12:32;0.00;0.00;0.62;0.00;0.00;0.62;3.80;3.47;;;26.80;26.30;;;;;;2213942;62;20410;-67
2022/08/07 03:15:24;0.00;0.00;0.62;0.00;0.00;0.62;3.90;3.17;;;26.80;26.30;;;;;;2214333;62;20377;-67
2022/08/07 03:18:10;0.00;0.00;0.62;0.00;0.00;0.62;4.13;3.40;;;26.80;26.30;;;;;;2214839;62;20396;-64
2022/08/07 03:20:56;0.00;0.00;0.62;0.00;0.00;0.62;4.10;3.30;;;26.80;26.30;;;;;;2214631;62;20396;-66
2022/08/07 03:23:43;0.00;0.00;0.62;0.00;0.00;0.62;3.13;2.83;;;26.80;26.90;;;;;;2214404;62;20399;-67
2022/08/07 03:26:31;0.00;0.00;0.62;0.00;0.00;0.62;4.50;3.57;;;26.70;26.30;;;;;;2214335;62;20417;-68
2022/08/07 03:29:19;0.00;0.00;0.62;0.00;0.00;0.62;3.97;3.57;;;26.70;26.30;;;;;;2214322;62;20369;-67
2022/08/07 03:32:09;0.00;0.00;0.62;0.00;0.00;0.62;4.23;3.83;;;26.70;26.30;;;;;;2214866;62;20365;-67
2022/08/07 03:34:58;0.00;0.00;0.62;0.00;0.00;0.62;4.23;3.83;;;26.70;26.30;;;;;;2214361;62;20368;-67
2022/08/07 03:37:49;0.00;0.00;0.62;0.00;0.00;0.62;4.30;3.90;;;26.70;26.30;;;;;;2214062;62;20400;-67
2022/08/07 03:40:35;0.00;0.00;0.62;0.00;0.00;0.62;5.10;3.83;;;26.70;26.30;;;;;;2214060;62;20453;-66
2022/08/07 03:43:21;0.00;0.00;0.62;0.00;0.00;0.62;3.53;3.10;;;26.70;26.30;;;;;;2214485;62;20410;-66
2022/08/07 03:46:10;0.00;0.00;0.62;0.00;0.00;0.62;3.53;3.20;;;26.70;26.20;;;;;;2214246;62;20418;-67
2022/08/07 03:48:55;0.00;0.00;0.62;0.00;0.00;0.62;4.23;3.70;;;26.70;26.20;;;;;;2213534;62;20424;-67
2022/08/07 03:51:42;0.00;0.00;0.62;0.00;0.00;0.62;4.30;3.47;;;26.60;26.20;;;;;;2214557;62;20385;-66
2022/08/07 03:54:29;0.00;0.00;0.62;0.00;0.00;0.62;3.70;3.27;;;26.50;26.20;;;;;;2214437;62;20418;-66
2022/08/07 03:57:15;0.00;0.00;0.62;0.00;0.00;0.62;4.20;3.80;;;26.50;26.20;;;;;;2216510;62;20392;-67
2022/08/07 04:00:01;0.00;0.00;0.62;0.00;0.00;0.62;3.90;3.33;;;26.50;26.30;;;;;;2214090;62;20392;-66
2022/08/07 04:02:47;0.00;0.00;0.62;0.00;0.00;0.62;3.60;3.27;;;26.50;26.20;;;;;;2216675;62;20787;-66
2022/08/07 04:05:38;0.00;0.00;0.62;0.00;0.00;0.62;4.50;3.90;;;26.50;26.30;;;;;;2214326;62;20372;-67
2022/08/07 04:08:25;0.00;0.00;0.62;0.00;0.00;0.62;3.83;3.43;;;26.40;26.20;;;;;;2214105;62;20392;-67
2022/08/07 04:11:12;0.00;0.00;0.62;0.00;0.00;0.62;3.63;3.10;;;26.40;26.30;;;;;;2214151;62;20369;-67
2022/08/07 04:14:00;0.00;0.00;0.62;0.00;0.00;0.62;3.60;3.27;;;26.40;26.40;;;;;;2213970;62;20373;-66
2022/08/07 04:16:47;0.00;0.00;0.62;0.00;0.00;0.62;4.20;3.40;;;26.40;26.40;;;;;;2217073;62;20751;-65
2022/08/07 04:19:33;0.00;0.00;0.62;0.00;0.00;0.62;3.67;3.20;;;26.40;26.40;;;;;;2213815;62;20419;-65
2022/08/07 04:22:18;0.00;0.00;0.62;0.00;0.00;0.62;4.40;3.30;;;26.30;26.40;;;;;;2213954;62;20380;-68
2022/08/07 04:25:05;0.00;0.00;0.62;0.00;0.00;0.62;3.83;3.43;;;26.30;26.40;;;;;;2213844;62;20481;-66
2022/08/07 04:27:51;0.00;0.00;0.62;0.00;0.00;0.62;3.60;3.30;;;26.30;26.40;;;;;;2214224;62;20665;-68
2022/08/07 04:30:36;0.00;0.00;0.62;0.00;0.00;0.62;4.33;2.90;;;26.30;26.40;;;;;;2214067;62;20377;-67
2022/08/07 04:33:27;0.00;0.00;0.62;0.00;0.00;0.62;3.80;2.80;;;26.30;26.40;;;;;;2216341;62;20790;-67
2022/08/07 04:36:13;0.00;0.00;0.62;0.00;0.00;0.62;3.57;3.10;;;26.30;26.50;;;;;;2214055;62;20400;-67
2022/08/07 04:38:59;0.00;0.00;0.62;0.00;0.00;0.62;4.50;3.23;;;26.30;26.50;;;;;;2214271;62;20408;-67
2022/08/07 04:41:43;0.00;0.00;0.62;0.00;0.00;0.62;3.10;2.80;;;26.30;26.50;;;;;;2213600;62;20389;-66
2022/08/07 04:44:30;0.00;0.00;0.62;0.00;0.00;0.62;3.40;2.97;;;26.20;26.50;;;;;;2214151;62;20361;-67
2022/08/07 04:47:26;0.00;0.00;0.62;0.00;0.00;0.62;3.13;2.80;;;26.30;26.60;;;;;;2213476;62;20400;-67
2022/08/07 04:50:21;0.00;0.00;0.62;0.00;0.00;0.62;2.80;2.50;;;26.30;26.60;;;;;;2214691;62;20373;-67
2022/08/07 04:53:35;0.00;0.00;0.62;0.00;0.00;0.62;2.83;2.50;;;26.30;26.60;;;;;;2214679;62;20396;-67
2022/08/07 04:56:30;0.00;0.00;0.62;0.00;0.00;0.62;4.80;3.20;;;26.30;26.60;;;;;;2213823;62;20372;-67
2022/08/07 04:59:26;0.00;0.00;0.62;0.00;0.00;0.62;3.20;2.90;;;26.30;26.60;;;;;;2214099;62;20411;-66
2022/08/07 05:02:19;0.00;0.00;0.62;0.00;0.00;0.62;4.23;3.20;;;26.30;26.60;;;;;;2213905;62;20400;-66
2022/08/07 05:05:11;0.00;0.00;0.62;0.00;0.00;0.62;3.60;3.30;;;26.30;26.60;;;;;;2214737;62;20376;-67
2022/08/07 05:08:02;0.00;0.00;0.62;0.00;0.00;0.62;3.40;2.87;;;26.30;26.60;;;;;;2214196;62;20406;-67
2022/08/07 05:11:00;0.00;0.00;0.62;0.00;0.00;0.62;3.43;3.13;;;26.40;26.70;;;;;;2216234;62;20434;-67
2022/08/07 05:13:52;0.00;0.00;0.62;0.00;0.00;0.62;3.00;2.60;;;26.30;26.60;;;;;;2214112;62;20369;-67
2022/08/07 05:16:40;0.00;0.00;0.62;0.00;0.00;0.62;3.20;2.63;;;26.40;26.70;;;;;;2214041;62;20991;-65
2022/08/07 05:19:34;0.00;0.00;0.62;0.00;0.00;0.62;4.00;3.20;;;26.40;26.70;;;;;;2214278;62;20607;-67
2022/08/07 05:22:21;0.00;0.00;0.62;0.00;0.00;0.62;3.67;3.27;;;26.40;26.70;;;;;;2214284;62;20613;-67
2022/08/07 05:25:09;0.00;0.00;0.62;0.00;0.00;0.62;4.17;3.77;;;26.40;26.70;;;;;;2213578;62;20376;-66
2022/08/07 05:27:56;0.00;0.00;0.62;0.00;0.00;0.62;3.23;2.93;;;26.40;26.70;;;;;;2213917;62;20989;-66
2022/08/07 05:30:43;0.00;0.00;0.62;0.00;0.00;0.62;3.90;3.13;;;26.40;26.70;;;;;;2216686;62;20654;-65
2022/08/07 05:33:30;0.00;0.00;0.62;0.00;0.00;0.62;3.37;3.07;;;26.40;26.70;;;;;;2213695;62;20365;-65
2022/08/07 05:36:18;0.00;0.00;0.62;0.00;0.00;0.62;3.20;2.90;;;26.50;26.80;;;;;;2216462;62;20364;-66
2022/08/07 05:39:04;0.00;0.00;0.62;0.00;0.00;0.62;3.77;3.47;;;26.50;26.80;;;;;;2213595;62;20396;-66
2022/08/07 05:41:51;0.00;0.00;0.62;0.00;0.00;0.62;3.97;3.43;;;26.50;26.80;;;;;;2214232;62;20692;-66
2022/08/07 05:44:37;0.00;0.00;0.62;0.00;0.00;0.62;4.30;3.33;;;26.50;26.80;;;;;;2216478;62;20464;-66
2022/08/07 05:47:23;0.00;0.00;0.62;0.00;0.00;0.62;4.10;3.40;;;26.50;26.80;;;;;;2213421;62;20396;-65
2022/08/07 05:50:09;0.00;0.00;0.62;0.00;0.00;0.62;4.50;4.10;;;26.50;26.70;;;;;;2213898;62;20373;-67
2022/08/07 05:52:56;0.00;0.00;0.62;0.00;0.00;0.62;4.00;3.43;;;26.50;26.70;;;;;;2214185;62;20367;-66
2022/08/07 05:55:42;0.00;0.00;0.62;0.00;0.00;0.62;4.43;4.03;;;26.50;26.70;;;;;;2213571;62;20744;-65
2022/08/07 05:58:28;0.00;0.00;0.62;0.00;0.00;0.62;4.40;4.00;;;26.50;26.70;;;;;;2214103;62;20679;-66
2022/08/07 06:01:16;0.00;0.00;0.62;0.00;0.00;0.62;4.97;4.13;;;26.50;26.70;;;;;;2213604;62;20422;-67
2022/08/07 06:04:05;0.00;0.00;0.62;0.00;0.00;0.62;4.50;3.90;;;26.50;26.70;;;;;;2214246;62;20364;-67
2022/08/07 06:06:56;0.00;0.00;0.62;0.00;0.00;0.62;4.57;4.00;;;26.50;26.60;;;;;;2213793;62;20376;-66
2022/08/07 06:09:44;0.00;0.00;0.62;0.00;0.00;0.62;5.60;4.57;;;26.50;26.70;;;;;;2216141;62;20637;-66
2022/08/07 06:12:29;0.00;0.00;0.62;0.00;0.00;0.62;4.83;4.33;;;26.50;26.60;;;;;;2214007;62;20414;-66
2022/08/07 06:15:16;0.00;0.00;0.62;0.00;0.00;0.62;5.43;4.80;;;26.50;26.50;;;;;;2217437;62;20486;-68
2022/08/07 06:18:02;0.00;0.00;0.62;0.00;0.00;0.62;5.70;5.20;;;26.50;26.40;;;;;;2214066;62;20419;-67
2022/08/07 06:20:47;0.00;0.00;0.62;0.00;0.00;0.62;6.00;5.47;;;26.50;26.30;;;;;;2214755;62;20745;-68
2022/08/07 06:23:33;0.00;0.00;0.62;0.00;0.00;0.62;5.30;4.47;;;26.40;26.30;;;;;;2214151;62;20400;-67
2022/08/07 06:26:20;0.00;0.00;0.62;0.00;0.00;0.62;4.90;4.30;;;26.40;26.30;;;;;;2215109;62;20361;-67
2022/08/07 06:29:06;0.00;0.00;0.62;0.00;0.00;0.62;5.57;5.07;;;26.40;26.40;;;;;;2214555;62;20656;-66
2022/08/07 06:31:51;0.00;0.00;0.62;0.00;0.00;0.62;6.00;5.40;;;26.40;26.30;;;;;;2214025;62;20417;-66
2022/08/07 06:34:38;0.00;0.00;0.62;0.00;0.00;0.62;6.40;4.80;;;26.40;26.20;;;;;;2214437;62;20373;-67
2022/08/07 06:37:23;0.00;0.00;0.62;0.00;0.00;0.62;6.30;5.43;;;26.30;26.30;;;;;;2214689;62;20411;-67
2022/08/07 06:40:09;0.00;0.00;0.62;0.00;0.00;0.62;4.83;4.43;;;26.30;26.30;;;;;;2214547;62;20625;-67
2022/08/07 06:42:57;0.00;0.00;0.62;0.00;0.00;0.62;5.27;4.70;;;26.30;26.40;;;;;;2214753;62;20421;-66
2022/08/07 06:46:03;0.00;0.00;0.62;0.00;0.00;0.62;6.10;5.07;;;26.30;26.40;;;;;;2214102;62;20384;-70
2022/08/07 06:48:48;0.00;0.00;0.62;0.00;0.00;0.62;5.67;4.30;;;26.30;26.50;;;;;;2214980;62;20441;-69
2022/08/07 06:51:39;0.00;0.00;0.62;0.00;0.00;0.62;6.20;5.57;;;26.30;26.50;;;;;;2214758;62;20756;-64
2022/08/07 06:54:28;0.00;0.00;0.62;0.00;0.00;0.62;5.50;4.90;;;26.30;26.50;;;;;;2213860;62;20415;-67
2022/08/07 06:57:13;0.00;0.00;0.62;0.00;0.00;0.62;5.53;4.90;;;26.30;26.50;;;;;;2214441;62;20430;-67
2022/08/07 07:00:01;0.00;0.00;0.62;0.00;0.00;0.62;5.63;4.90;;;26.30;26.50;;;;;;2214662;62;20417;-66
2022/08/07 07:02:47;0.00;0.00;0.62;0.00;0.00;0.62;5.63;5.07;;;26.30;26.50;;;;;;2214572;62;20406;-65
2022/08/07 07:05:32;0.00;0.00;0.62;0.00;0.00;0.62;6.50;5.57;;;26.30;26.60;;;;;;2214926;62;20410;-67
2022/08/07 07:08:24;0.00;0.00;0.62;0.00;0.00;0.62;6.53;5.17;;;26.30;26.50;;;;;;2213665;62;20392;-69
2022/08/07 07:11:09;0.00;0.00;0.62;0.00;0.00;0.62;7.43;5.00;;;26.30;26.40;;;;;;2214899;62;20446;-68
2022/08/07 07:13:54;0.00;0.00;0.62;0.00;0.00;0.62;6.67;4.77;;;26.30;26.50;;;;;;2215158;62;20369;-66
2022/08/07 07:16:42;0.00;0.00;0.62;0.00;0.00;0.62;6.07;4.47;;;26.30;26.40;;;;;;2212674;62;20504;-66
2022/08/07 07:19:34;0.00;0.00;0.62;0.00;0.00;0.62;5.13;4.57;;;26.30;26.40;;;;;;2210662;62;20456;-70
2022/08/07 07:22:21;0.00;0.00;0.62;0.00;0.00;0.62;5.60;5.00;;;26.30;26.40;;;;;;2211128;62;20440;-70
2022/08/07 07:25:09;0.00;0.00;0.62;0.00;0.00;0.62;5.13;4.63;;;26.30;26.40;;;;;;2211246;62;20612;-67
2022/08/07 07:28:01;0.00;0.00;0.62;0.00;0.00;0.62;5.13;4.63;;;26.30;26.50;;;;;;2210582;62;20443;-65
2022/08/07 07:30:58;0.00;0.00;0.62;0.00;0.00;0.62;6.40;4.57;;;26.30;26.60;;;;;;2210289;62;20378;-71
2022/08/07 07:33:47;0.00;0.00;0.62;0.00;0.00;0.62;5.90;5.30;;;26.30;26.50;;;;;;2210778;62;20442;-70
2022/08/07 07:36:33;0.00;0.00;0.62;0.00;0.00;0.62;7.47;5.23;;;26.30;26.60;;;;;;2210923;62;20415;-66
2022/08/07 07:39:20;0.00;0.00;0.62;0.00;0.00;0.62;4.40;4.00;;;26.30;26.60;;;;;;2210531;62;20651;-68
2022/08/07 07:42:09;0.00;0.00;0.62;0.00;0.00;0.62;4.90;4.40;;;26.40;26.60;;;;;;2210652;62;20617;-71
2022/08/07 07:44:56;0.00;0.00;0.62;0.00;0.00;0.62;5.70;4.60;;;26.40;26.60;;;;;;2210290;62;20409;-64
2022/08/07 07:47:44;0.00;0.00;0.62;0.00;0.00;0.62;4.93;4.43;;;26.50;26.70;;;;;;2210906;62;20393;-68
2022/08/07 07:50:31;0.00;0.00;0.62;0.00;0.00;0.62;4.93;4.23;;;26.50;26.60;;;;;;2210682;62;20377;-68
2022/08/07 07:53:20;0.00;0.00;0.62;0.00;0.00;0.62;5.20;4.67;;;26.50;26.70;;;;;;2210292;62;20449;-67
2022/08/07 07:56:08;0.00;0.00;0.62;0.00;0.00;0.62;5.43;4.60;;;26.50;26.60;;;;;;2210136;62;20411;-65
2022/08/07 07:58:54;0.00;0.00;0.62;0.00;0.00;0.62;6.73;4.77;;;26.50;26.50;;;;;;2210582;62;20428;-70
2022/08/07 08:01:45;0.00;0.00;0.62;0.00;0.00;0.62;6.00;5.17;;;26.50;26.40;;;;;;2214856;62;20767;-65
2022/08/07 08:04:31;0.00;0.00;0.62;0.00;0.00;0.62;5.87;4.90;;;26.50;26.80;;;;;;2218243;62;20373;-63
2022/08/07 08:07:18;0.00;0.00;0.62;0.00;0.00;0.62;6.07;4.50;;;26.50;26.30;;;;;;2217689;62;20532;-64
2022/08/07 08:10:06;0.00;0.00;0.62;0.00;0.00;0.62;5.53;4.30;;;26.50;26.90;;;;;;2218574;62;20379;-64
2022/08/07 08:12:52;0.00;0.00;0.62;0.00;0.00;0.62;6.87;4.73;;;26.50;26.40;;;;;;2218676;62;20364;-64
2022/08/07 08:15:39;0.00;0.00;0.62;0.00;0.00;0.62;6.60;4.30;;;26.50;26.40;;;;;;2217684;62;20641;-69
2022/08/07 08:18:26;0.00;0.00;0.62;0.00;0.00;0.62;5.73;4.80;;;26.60;26.40;;;;;;2218095;62;20782;-63
2022/08/07 08:27:26;0.00;0.00;0.62;0.00;0.00;0.62;4.63;3.57;;;26.60;26.20;;;;;;2218196;62;20775;-64
2022/08/07 08:30:13;0.00;0.00;0.62;0.00;0.00;0.62;5.40;4.30;;;26.60;26.30;;;;;;2220096;62;20367;-64
2022/08/07 08:33:02;0.00;0.00;0.62;0.00;0.00;0.62;5.50;4.10;;;26.60;26.30;;;;;;2218364;62;20565;-66
2022/08/07 08:35:50;0.00;0.00;0.62;0.00;0.00;0.62;5.30;4.17;;;26.60;26.30;;;;;;2218427;62;20800;-68
2022/08/07 08:38:42;0.00;0.00;0.62;0.00;0.00;0.62;4.27;3.87;;;26.60;26.40;;;;;;2217693;62;20429;-65
2022/08/07 08:41:41;0.00;0.00;0.62;0.00;0.00;0.62;6.80;3.70;;;26.60;26.30;;;;;;2218242;62;20594;-68
2022/08/07 08:44:34;0.00;0.00;0.62;0.00;0.00;0.62;5.13;3.67;;;26.60;26.20;;;;;;2217742;62;20409;-67
2022/08/07 08:47:25;0.00;0.00;0.62;0.00;0.00;0.62;4.63;3.90;;;26.60;26.00;;;;;;2218411;62;20384;-69
2022/08/07 08:50:20;0.00;0.00;0.62;0.00;0.00;0.62;4.60;3.97;;;26.70;26.10;;;;;;2218526;62;20467;-67
2022/08/07 08:53:21;0.00;0.00;0.62;0.00;0.00;0.62;5.07;3.50;;;26.60;26.10;;;;;;2217647;62;20364;-68
2022/08/07 08:56:10;0.00;0.00;0.62;0.00;0.00;0.62;3.60;2.80;;;26.70;26.10;;;;;;2218126;62;20363;-68
2022/08/07 08:59:06;0.00;0.00;0.62;0.00;0.00;0.62;3.80;3.27;;;26.70;26.00;;;;;;2217564;62;20423;-69
2022/08/07 09:02:03;0.00;0.00;0.62;0.00;0.00;0.62;4.37;2.77;;;26.70;25.90;;;;;;2218489;62;20623;-66
2022/08/07 09:04:56;0.00;0.00;0.62;0.00;0.00;0.62;2.70;1.83;;;26.70;25.70;;;;;;2218485;62;20375;-67
2022/08/07 09:07:50;0.00;0.00;0.62;0.00;0.00;0.62;2.70;2.30;;;26.70;25.60;;;;;;2217504;62;20396;-64
2022/08/07 09:10:44;0.00;0.00;0.62;0.00;0.00;0.62;2.70;2.03;;;26.80;25.50;;;;;;2218128;62;20444;-70
2022/08/07 09:13:36;0.00;0.00;0.62;0.00;0.00;0.62;2.80;2.30;;;26.80;25.50;;;;;;2218263;62;20362;-66
2022/08/07 09:16:33;0.00;0.00;0.62;0.00;0.00;0.62;2.77;2.20;;;26.80;25.40;;;;;;2218355;62;20375;-69
2022/08/07 09:19:34;0.00;0.00;0.62;0.00;0.00;0.62;4.00;2.77;;;26.80;25.40;;;;;;2218209;62;20376;-69
2022/08/07 09:22:39;0.00;0.00;0.62;0.00;0.00;0.62;3.50;2.30;;;26.80;25.40;;;;;;2217595;62;20623;-68
2022/08/07 09:25:33;0.00;0.00;0.62;0.00;0.00;0.62;4.13;2.20;;;26.80;25.90;;;;;;2218083;62;20764;-70
2022/08/07 09:28:37;0.00;0.00;0.62;0.00;0.00;0.62;3.10;2.57;;;26.80;25.40;;;;;;2218200;62;20392;-66
2022/08/07 09:31:35;0.00;0.00;0.62;0.00;0.00;0.62;2.83;2.23;;;26.80;25.50;;;;;;2218462;62;20372;-67
2022/08/07 09:34:28;0.00;0.00;0.62;0.00;0.00;0.62;3.00;2.30;;;26.90;25.50;;;;;;2217878;62;20665;-68
2022/08/07 09:37:23;0.00;0.00;0.62;0.00;0.00;0.62;2.40;2.00;;;26.90;25.50;;;;;;2217630;62;20413;-68
2022/08/07 09:40:25;0.00;0.00;0.62;0.00;0.00;0.62;3.30;2.63;;;26.90;25.50;;;;;;2218095;62;20619;-69
2022/08/07 09:43:24;0.00;0.00;0.62;0.00;0.00;0.62;3.63;2.07;;;26.90;25.40;;;;;;2214237;62;20743;-67
2022/08/07 09:46:30;0.00;0.00;0.62;0.00;0.00;0.62;3.47;2.20;;;27.00;25.90;;;;;;2214559;62;20406;-69
2022/08/07 09:49:32;0.00;0.00;0.62;0.00;0.00;0.62;3.10;2.10;;;27.00;25.30;;;;;;2215023;62;20400;-67
2022/08/07 09:52:27;0.00;0.00;0.62;0.00;0.00;0.62;2.83;1.97;;;27.00;25.20;;;;;;2214455;62;20376;-64
2022/08/07 09:55:20;0.00;0.00;0.62;0.00;0.00;0.62;2.13;1.70;;;27.00;25.30;;;;;;2214420;62;20410;-66
2022/08/07 09:58:34;0.00;0.00;0.62;0.00;0.00;0.62;2.63;1.67;;;27.00;25.30;;;;;;2214345;62;20381;-66
2022/08/07 10:01:48;0.00;0.00;0.62;0.00;0.00;0.62;3.10;2.00;;;27.10;25.40;;;;;;2215143;62;20438;-64
2022/08/07 10:05:11;0.00;0.00;0.62;0.00;0.00;0.62;2.10;1.70;;;27.10;25.40;;;;;;2215072;62;20713;-69
2022/08/07 10:08:11;0.00;0.00;0.62;0.00;0.00;0.62;2.90;1.57;;;27.10;25.50;;;;;;2215043;62;20675;-66
2022/08/07 10:11:04;0.00;0.00;0.62;0.00;0.00;0.62;2.23;1.70;;;27.10;25.40;;;;;;2214824;62;20499;-72
2022/08/07 10:14:05;0.00;0.00;0.62;0.00;0.00;0.62;2.17;1.60;;;27.20;25.40;;;;;;2214477;62;20748;-67
2022/08/07 10:17:18;0.00;0.00;0.62;0.00;0.00;0.62;1.97;1.67;;;27.20;25.40;;;;;;2214607;62;20406;-67
2022/08/07 10:20:16;0.00;0.00;0.62;0.00;0.00;0.62;2.73;1.57;;;27.20;25.30;;;;;;2215179;62;20373;-68
2022/08/07 10:23:48;0.00;0.00;0.62;0.00;0.00;0.62;2.73;1.50;;;27.20;25.10;;;;;;2215069;62;20427;-64
2022/08/07 10:26:47;0.00;0.00;0.62;0.00;0.00;0.62;2.10;1.73;;;27.20;25.00;;;;;;2214895;62;20744;-69
2022/08/07 10:30:03;0.00;0.00;0.62;0.00;0.00;0.62;2.30;1.30;;;27.30;25.10;;;;;;2214417;62;20402;-68
2022/08/07 10:33:37;0.00;0.00;0.62;0.00;0.00;0.62;2.53;1.60;;;27.30;25.00;;;;;;2214856;62;20369;-67
2022/08/07 10:36:46;0.00;0.00;0.62;0.00;0.00;0.62;2.00;1.60;;;27.30;24.90;;;;;;2212616;62;20388;-66
2022/08/07 10:39:52;0.00;0.00;0.62;0.00;0.00;0.62;2.20;1.60;;;27.40;24.80;;;;;;2216911;62;20360;-69
2022/08/07 10:42:56;0.00;0.00;0.62;0.00;0.00;0.62;3.57;1.70;;;27.40;24.90;;;;;;2214430;62;20404;-69
2022/08/07 10:45:48;0.00;0.00;0.62;0.00;0.00;0.62;1.70;1.23;;;27.40;24.80;;;;;;2214864;62;20475;-69
2022/08/07 10:48:47;0.00;0.00;0.62;0.00;0.00;0.62;2.90;1.70;;;27.40;24.50;;;;;;2214971;62;20434;-67
2022/08/07 10:51:39;0.00;0.00;0.62;0.00;0.00;0.62;2.00;1.50;;;27.50;24.30;;;;;;2214132;62;20381;-68
2022/08/07 10:54:34;0.00;0.00;0.62;0.00;0.00;0.62;2.57;1.30;;;27.50;24.40;;;;;;2214592;62;20388;-63
2022/08/07 10:57:30;0.00;0.00;0.62;0.00;0.00;0.62;3.40;1.57;;;27.40;24.40;;;;;;2214137;62;20424;-62
2022/08/07 11:00:17;0.00;0.00;0.62;0.00;0.00;0.62;2.97;1.93;;;27.50;24.60;;;;;;2214845;62;20377;-61
2022/08/07 11:03:09;0.00;0.00;0.62;0.00;0.00;0.62;5.13;1.77;;;27.50;24.70;;;;;;2214930;62;20428;-62
2022/08/07 11:06:10;0.00;0.00;0.62;0.00;0.00;0.62;2.23;1.50;;;27.50;24.70;;;;;;2214185;62;20430;-62
2022/08/07 11:09:02;0.00;0.00;0.62;0.00;0.00;0.62;2.80;1.50;;;27.60;24.80;;;;;;2214671;62;20397;-62
2022/08/07 11:11:55;0.00;0.00;0.62;0.00;0.00;0.62;7.00;1.20;;;27.60;24.70;;;;;;2215021;62;20589;-62
2022/08/07 11:14:46;0.00;0.00;0.62;0.00;0.00;0.62;2.57;1.30;;;27.60;24.70;;;;;;2214766;62;20373;-63
2022/08/07 11:17:42;0.00;0.00;0.62;0.00;0.00;0.62;1.90;1.40;;;27.60;24.70;;;;;;2214669;62;20393;-63